Time;durP1;ratioP1;P1;durP2;ratioP2;P2;SDS_P1;SDS_P2;PMS_P1;PMS_P2;Temp;Humidity;BMP_temperature;BMP_pressure;BME280_temperature;BME280_humidity;BME280_pressure;Samples;Min_cycle;Max_cycle;Signal;HPM_P1;HPM_P2
2022/03/25 00:00:40;;;;;;;187.15;77.45;;;;;;;3.05;100.00;103125.94;5003518;28;20495;-74
2022/03/25 00:03:06;;;;;;;170.23;76.57;;;;;;;3.03;100.00;103119.78;4987669;28;20034;-74
2022/03/25 00:05:32;;;;;;;165.00;76.07;;;;;;;3.02;100.00;103130.22;5007808;28;20053;-74
2022/03/25 00:07:58;;;;;;;180.82;76.40;;;;;;;3.00;100.00;103124.97;4988081;28;20199;-74
2022/03/25 00:10:23;;;;;;;191.45;78.18;;;;;;;2.97;100.00;103122.28;5007511;28;20073;-74
2022/03/25 00:12:49;;;;;;;210.07;81.07;;;;;;;2.95;100.00;103123.97;5006791;28;20029;-75
2022/03/25 00:15:15;;;;;;;174.32;74.68;;;;;;;2.93;100.00;103118.69;4994836;28;20120;-74
2022/03/25 00:17:41;;;;;;;165.07;74.28;;;;;;;2.91;100.00;103124.75;5007619;28;20413;-74
2022/03/25 00:20:07;;;;;;;184.60;79.10;;;;;;;2.87;100.00;103113.31;5005919;28;20033;-74
2022/03/25 00:22:33;;;;;;;198.38;81.82;;;;;;;2.88;100.00;103120.31;5007313;28;20405;-74
2022/03/25 00:24:58;;;;;;;193.10;81.53;;;;;;;2.89;100.00;103119.47;5005435;28;21473;-74
2022/03/25 00:27:23;;;;;;;188.00;78.90;;;;;;;2.89;100.00;103123.84;4988987;28;20559;-76
2022/03/25 00:29:49;;;;;;;209.38;82.63;;;;;;;2.88;100.00;103119.44;5006333;28;20040;-75
2022/03/25 00:32:16;;;;;;;188.82;79.55;;;;;;;2.88;100.00;103130.78;5005463;28;20029;-75
2022/03/25 00:34:42;;;;;;;208.90;84.57;;;;;;;2.88;100.00;103133.41;5005304;28;20038;-75
2022/03/25 00:37:08;;;;;;;195.55;80.95;;;;;;;2.90;100.00;103136.06;5005266;28;20514;-75
2022/03/25 00:39:34;;;;;;;226.52;84.88;;;;;;;2.90;100.00;103130.81;5005710;28;20581;-75
2022/03/25 00:41:59;;;;;;;204.90;84.65;;;;;;;2.89;100.00;103135.16;4988048;28;20067;-76
2022/03/25 00:44:25;;;;;;;205.43;83.55;;;;;;;2.90;100.00;103136.97;5008494;28;20033;-76
2022/03/25 00:46:50;;;;;;;197.07;81.20;;;;;;;2.95;100.00;103134.44;4987946;28;20036;-76
2022/03/25 00:49:17;;;;;;;195.02;80.03;;;;;;;2.96;100.00;103130.97;4988406;28;20072;-76
2022/03/25 00:51:43;;;;;;;190.60;81.63;;;;;;;2.93;100.00;103130.88;5007933;28;20563;-76
2022/03/25 00:54:10;;;;;;;209.50;83.68;;;;;;;2.90;100.00;103136.06;4994101;28;20025;-75
2022/03/25 00:56:35;;;;;;;193.95;79.40;;;;;;;2.89;100.00;103124.69;5006916;28;20049;-75
2022/03/25 00:59:01;;;;;;;183.50;77.05;;;;;;;2.89;100.00;103126.44;4988080;28;20041;-76
2022/03/25 01:01:26;;;;;;;179.73;78.10;;;;;;;2.85;100.00;103126.34;5006390;28;20048;-76
2022/03/25 01:03:52;;;;;;;194.38;82.35;;;;;;;2.85;100.00;103126.34;5005267;28;20116;-76
2022/03/25 01:06:18;;;;;;;200.35;81.93;;;;;;;2.85;100.00;103128.97;5005880;28;20029;-75
2022/03/25 01:08:44;;;;;;;201.07;79.97;;;;;;;2.87;100.00;103128.16;4990802;28;20030;-75
2022/03/25 01:11:10;;;;;;;197.57;78.85;;;;;;;2.85;100.00;103123.75;5005166;28;20037;-75
2022/03/25 01:13:36;;;;;;;195.00;79.65;;;;;;;2.84;100.00;103127.22;4990086;28;20053;-75
2022/03/25 01:16:09;;;;;;;184.95;77.65;;;;;;;2.81;100.00;103127.16;4973195;28;20459;-76
2022/03/25 01:18:35;;;;;;;162.00;74.07;;;;;;;2.79;100.00;103133.19;4987434;28;20481;-76
2022/03/25 01:21:00;;;;;;;160.82;74.97;;;;;;;2.78;100.00;103126.19;4988951;28;20118;-75
2022/03/25 01:23:27;;;;;;;194.60;81.05;;;;;;;2.75;100.00;103121.78;4988658;28;20465;-75
2022/03/25 01:25:53;;;;;;;166.93;74.55;;;;;;;2.76;100.00;103130.47;4988486;28;20040;-75
2022/03/25 01:28:19;;;;;;;192.55;78.70;;;;;;;2.78;100.00;103128.81;5006270;28;20038;-75
2022/03/25 01:30:46;;;;;;;195.27;82.70;;;;;;;2.80;100.00;103125.38;4988061;28;20041;-76
2022/03/25 01:33:12;;;;;;;198.30;79.72;;;;;;;2.84;100.00;103132.44;5011119;28;20672;-76
2022/03/25 01:35:38;;;;;;;198.10;83.63;;;;;;;2.84;100.00;103131.59;5009370;28;20069;-75
2022/03/25 01:38:04;;;;;;;197.15;79.07;;;;;;;2.87;100.00;103141.25;5009174;28;20121;-75
2022/03/25 01:40:30;;;;;;;187.40;78.07;;;;;;;2.90;100.00;103136.06;5009518;28;20061;-76
2022/03/25 01:42:56;;;;;;;185.57;79.30;;;;;;;2.90;100.00;103130.81;4994895;28;20493;-75
2022/03/25 01:45:33;;;;;;;194.98;79.45;;;;;;;2.91;100.00;103132.59;5009419;28;20030;-76
2022/03/25 01:47:59;;;;;;;191.32;79.25;;;;;;;2.89;100.00;103129.94;4991887;28;20512;-75
2022/03/25 01:50:25;;;;;;;189.30;79.32;;;;;;;2.87;100.00;103126.41;5005403;28;20053;-75
2022/03/25 01:52:51;;;;;;;193.10;80.53;;;;;;;2.84;100.00;103119.38;5010136;28;20324;-76
2022/03/25 01:55:43;;;;;;;183.45;76.72;;;;;;;2.84;100.00;103121.13;5010651;28;21084;-77
2022/03/25 01:58:12;;;;;;;186.88;78.05;;;;;;;2.81;100.00;103119.31;4980549;28;20108;-76
2022/03/25 02:00:37;;;;;;;185.63;78.53;;;;;;;2.80;100.00;103122.78;4993784;28;20151;-76
2022/03/25 02:03:04;;;;;;;172.52;74.28;;;;;;;2.79;100.00;103115.75;5007424;28;20055;-76
2022/03/25 02:05:29;;;;;;;173.40;74.05;;;;;;;2.75;100.00;103113.94;5006839;28;20105;-76
2022/03/25 02:07:55;;;;;;;182.60;78.22;;;;;;;2.72;100.00;103121.69;4979633;28;20663;-76
2022/03/25 02:10:21;;;;;;;189.27;77.75;;;;;;;2.68;100.00;103115.50;5008874;28;20443;-76
2022/03/25 02:12:47;;;;;;;185.60;77.32;;;;;;;2.67;100.00;103121.56;4975050;28;20394;-76
2022/03/25 02:15:12;;;;;;;188.00;77.85;;;;;;;2.67;100.00;103113.72;4992485;28;20065;-76
2022/03/25 02:17:38;;;;;;;176.88;74.35;;;;;;;2.67;100.00;103112.88;4989167;28;20680;-75
2022/03/25 02:20:08;;;;;;;173.25;76.43;;;;;;;2.65;100.00;103109.31;4990225;28;21408;-77
2022/03/25 02:22:37;;;;;;;177.48;76.15;;;;;;;2.63;100.00;103111.00;5008817;28;20050;-76
2022/03/25 02:25:08;;;;;;;166.88;72.38;;;;;;;2.62;100.00;103104.00;4991790;28;20109;-76
2022/03/25 02:27:35;;;;;;;170.02;73.70;;;;;;;2.57;100.00;103110.00;5008491;28;20037;-76
2022/03/25 02:30:02;;;;;;;159.68;72.05;;;;;;;2.57;100.00;103109.13;4992733;28;20029;-76
2022/03/25 02:32:28;;;;;;;189.60;76.30;;;;;;;2.57;100.00;103101.28;4993827;28;20413;-76
2022/03/25 02:34:53;;;;;;;190.48;78.82;;;;;;;2.60;100.00;103100.50;4990406;28;20040;-76
2022/03/25 02:37:19;;;;;;;178.18;75.60;;;;;;;2.60;100.00;103105.72;4992379;28;20654;-76
2022/03/25 02:39:45;;;;;;;178.57;75.78;;;;;;;2.58;100.00;103105.66;5009618;28;20056;-76
2022/03/25 02:42:10;;;;;;;190.77;77.22;;;;;;;2.56;100.00;103095.16;4989907;28;20183;-75
2022/03/25 02:44:36;;;;;;;179.80;72.22;;;;;;;2.56;100.00;103100.41;5009244;28;20377;-75
2022/03/25 02:47:02;;;;;;;194.45;77.60;;;;;;;2.57;100.00;103096.06;4992641;28;20404;-76
2022/03/25 02:49:27;;;;;;;189.35;77.50;;;;;;;2.55;100.00;103096.00;4990200;28;20037;-76
2022/03/25 02:51:52;;;;;;;171.98;73.00;;;;;;;2.54;100.00;103088.13;5006109;28;20036;-76
2022/03/25 02:54:18;;;;;;;169.70;71.55;;;;;;;2.51;100.00;103094.16;5007937;28;20152;-76
2022/03/25 02:56:43;;;;;;;167.18;72.72;;;;;;;2.49;100.00;103098.47;5005802;28;20041;-76
2022/03/25 02:59:09;;;;;;;176.70;74.13;;;;;;;2.44;100.00;103089.63;5004467;28;20088;-76
2022/03/25 03:01:35;;;;;;;169.93;71.40;;;;;;;2.44;100.00;103095.75;5007324;28;20352;-76
2022/03/25 03:04:00;;;;;;;194.68;76.90;;;;;;;2.39;100.00;103086.03;5007291;28;20041;-75
2022/03/25 03:06:26;;;;;;;183.73;74.53;;;;;;;2.40;100.00;103093.91;5007559;28;20053;-76
2022/03/25 03:08:51;;;;;;;165.32;71.60;;;;;;;2.37;100.00;103090.31;5006115;28;20040;-76
2022/03/25 03:11:17;;;;;;;167.60;71.93;;;;;;;2.36;100.00;103089.47;5007098;28;20045;-75
2022/03/25 03:13:44;;;;;;;184.63;74.82;;;;;;;2.33;100.00;103086.75;4991097;28;20029;-75
2022/03/25 03:16:10;;;;;;;163.05;69.55;;;;;;;2.34;100.00;103085.03;4991017;28;20053;-76
2022/03/25 03:18:36;;;;;;;170.25;72.10;;;;;;;2.34;100.00;103087.66;4989552;28;20034;-76
2022/03/25 03:21:01;;;;;;;184.27;73.88;;;;;;;2.30;100.00;103092.78;4989706;28;20057;-76
2022/03/25 03:23:27;;;;;;;177.43;71.93;;;;;;;2.29;100.00;103090.16;5006137;28;20392;-76
2022/03/25 03:25:52;;;;;;;177.57;73.30;;;;;;;2.26;100.00;103090.06;5008100;28;20033;-76
2022/03/25 03:28:18;;;;;;;185.00;74.32;;;;;;;2.25;100.00;103094.41;5008002;28;20156;-76
2022/03/25 03:30:43;;;;;;;181.02;73.20;;;;;;;2.26;100.00;103098.78;5007300;28;20516;-76
2022/03/25 03:33:09;;;;;;;181.68;73.05;;;;;;;2.28;100.00;103099.72;4989033;28;20037;-76
2022/03/25 03:35:35;;;;;;;183.70;75.63;;;;;;;2.30;100.00;103094.53;5007648;28;20107;-76
2022/03/25 03:38:03;;;;;;;181.80;69.90;;;;;;;2.29;100.00;103096.25;5007454;28;20029;-76
2022/03/25 03:40:28;;;;;;;178.07;72.43;;;;;;;2.26;100.00;103087.44;5008008;28;20037;-76
2022/03/25 03:42:54;;;;;;;173.68;71.72;;;;;;;2.24;100.00;103097.84;4995413;28;20036;-76
2022/03/25 03:45:20;;;;;;;160.30;68.90;;;;;;;2.22;100.00;103093.47;5007628;28;20068;-76
2022/03/25 03:47:46;;;;;;;174.02;71.32;;;;;;;2.22;100.00;103093.47;5007308;28;20030;-76
2022/03/25 03:50:14;;;;;;;186.40;73.35;;;;;;;2.20;100.00;103085.56;5007826;28;20085;-76
2022/03/25 03:52:40;;;;;;;191.10;74.90;;;;;;;2.21;100.00;103092.56;5007064;28;20116;-76
2022/03/25 03:55:08;;;;;;;166.27;71.20;;;;;;;2.21;100.00;103091.66;4988839;28;20091;-76
2022/03/25 03:57:35;;;;;;;171.18;70.78;;;;;;;2.18;100.00;103102.91;4988495;28;20049;-76
2022/03/25 04:00:01;;;;;;;167.00;68.28;;;;;;;2.19;100.00;103093.34;4991966;28;20038;-76
2022/03/25 04:02:26;;;;;;;190.10;72.95;;;;;;;2.17;100.00;103096.81;5006678;28;20042;-76
2022/03/25 04:04:52;;;;;;;194.70;75.80;;;;;;;2.16;100.00;103099.38;5007648;28;20036;-76
2022/03/25 04:07:19;;;;;;;193.35;74.35;;;;;;;2.14;100.00;103098.47;5007759;28;20029;-76
2022/03/25 04:09:45;;;;;;;165.05;69.85;;;;;;;2.11;100.00;103101.00;5006911;28;20037;-76
2022/03/25 04:12:11;;;;;;;187.88;73.97;;;;;;;2.09;100.00;103100.97;4989234;28;20073;-76
2022/03/25 04:14:37;;;;;;;172.75;71.20;;;;;;;2.08;100.00;103096.59;4989834;28;20038;-75
2022/03/25 04:17:03;;;;;;;203.95;75.65;;;;;;;2.07;100.00;103101.78;5006976;28;20396;-76
2022/03/25 04:19:28;;;;;;;180.15;72.18;;;;;;;2.07;100.00;103099.16;4988275;28;20053;-76
2022/03/25 04:21:54;;;;;;;188.43;72.82;;;;;;;2.05;100.00;103103.47;4971263;28;20375;-76
2022/03/25 04:24:20;;;;;;;202.27;74.40;;;;;;;2.03;100.00;103093.84;5006044;28;20033;-76
2022/03/25 04:26:45;;;;;;;180.05;71.93;;;;;;;2.00;100.00;103104.22;5006784;28;20120;-76
2022/03/25 04:29:11;;;;;;;170.88;68.80;;;;;;;1.98;100.00;103094.56;5006763;28;20037;-76
2022/03/25 04:31:36;;;;;;;172.50;69.63;;;;;;;1.95;100.00;103095.38;4988714;28;20226;-76
2022/03/25 04:34:03;;;;;;;191.32;73.63;;;;;;;1.92;100.00;103090.06;5007292;28;20668;-75
2022/03/25 04:36:29;;;;;;;184.77;70.72;;;;;;;1.92;100.00;103105.75;4996312;28;20033;-76
2022/03/25 04:38:56;;;;;;;181.57;71.25;;;;;;;1.90;100.00;103096.97;5007605;28;20069;-76
2022/03/25 04:41:39;;;;;;;203.25;74.38;;;;;;;1.88;100.00;103104.78;4991999;28;20477;-75
2022/03/25 04:44:05;;;;;;;198.10;72.95;;;;;;;1.88;100.00;103098.66;5007473;28;20031;-76
2022/03/25 04:46:30;;;;;;;205.77;76.97;;;;;;;1.88;100.00;103096.03;4988817;28;20087;-76
2022/03/25 04:48:56;;;;;;;198.90;76.38;;;;;;;1.87;100.00;103094.28;5008372;28;20048;-76
2022/03/25 04:51:21;;;;;;;224.52;81.63;;;;;;;1.89;100.00;103101.31;5004172;28;20641;-76
2022/03/25 04:53:47;;;;;;;253.15;86.63;;;;;;;1.92;100.00;103103.13;4988194;28;20722;-76
2022/03/25 04:56:12;;;;;;;224.38;81.07;;;;;;;1.94;100.00;103108.38;4989949;28;20045;-76
2022/03/25 04:58:38;;;;;;;226.82;83.35;;;;;;;1.96;100.00;103110.19;5007883;28;20034;-76
2022/03/25 05:01:03;;;;;;;242.68;84.35;;;;;;;1.97;100.00;103104.13;5006853;28;20056;-76
2022/03/25 05:03:29;;;;;;;224.93;80.45;;;;;;;2.03;100.00;103108.66;5007226;28;20132;-75
2022/03/25 05:05:54;;;;;;;235.95;79.13;;;;;;;2.05;100.00;103112.19;5006823;28;20116;-76
2022/03/25 05:08:21;;;;;;;224.27;80.15;;;;;;;2.05;100.00;103117.41;5013149;28;20125;-75
2022/03/25 05:10:46;;;;;;;234.93;82.35;;;;;;;2.05;100.00;103113.94;5013637;28;20041;-75
2022/03/25 05:13:12;;;;;;;205.85;77.53;;;;;;;2.03;100.00;103109.50;5014775;28;20029;-76
2022/03/25 05:15:38;;;;;;;203.23;74.15;;;;;;;2.02;100.00;103112.97;5014529;28;20030;-76
2022/03/25 05:18:04;;;;;;;207.25;78.35;;;;;;;1.99;100.00;103118.13;4996408;28;20106;-76
2022/03/25 05:20:29;;;;;;;213.05;76.65;;;;;;;1.97;100.00;103111.09;5011721;28;21523;-76
2022/03/25 05:22:55;;;;;;;228.77;81.03;;;;;;;1.95;100.00;103116.28;4994950;28;20037;-75
2022/03/25 05:25:24;;;;;;;221.20;77.72;;;;;;;1.96;100.00;103112.81;4995284;28;20518;-75
2022/03/25 05:27:51;;;;;;;208.93;77.07;;;;;;;1.96;100.00;103110.19;4995137;28;20159;-75
2022/03/25 05:30:25;;;;;;;198.20;74.35;;;;;;;1.95;100.00;103111.03;4994931;28;20029;-75
2022/03/25 05:32:51;;;;;;;196.57;72.82;;;;;;;1.94;100.00;103119.72;4994741;28;20496;-75
2022/03/25 05:35:19;;;;;;;214.65;77.53;;;;;;;1.94;100.00;103114.50;4993307;28;20033;-75
2022/03/25 05:37:44;;;;;;;192.73;73.78;;;;;;;1.94;100.00;103111.00;4995792;28;20498;-75
2022/03/25 05:40:10;;;;;;;220.43;77.97;;;;;;;1.89;100.00;103113.50;4996737;28;20129;-75
2022/03/25 05:42:37;;;;;;;204.85;75.80;;;;;;;1.87;100.00;103129.09;5013347;28;20038;-75
2022/03/25 05:45:07;;;;;;;199.65;76.13;;;;;;;1.89;100.00;103121.31;4995592;28;20065;-75
2022/03/25 05:47:34;;;;;;;202.38;74.97;;;;;;;1.89;100.00;103137.00;5013075;28;20033;-75
2022/03/25 05:49:59;;;;;;;204.70;75.20;;;;;;;1.89;100.00;103131.78;5012942;28;20037;-74
2022/03/25 05:52:25;;;;;;;181.65;70.70;;;;;;;1.90;100.00;103137.06;5012302;28;20454;-74
2022/03/25 05:54:51;;;;;;;197.60;71.57;;;;;;;1.89;100.00;103140.50;5013420;28;20033;-75
2022/03/25 05:57:16;;;;;;;195.32;73.15;;;;;;;1.91;100.00;103140.56;5014462;28;20033;-75
2022/03/25 05:59:43;;;;;;;190.90;69.63;;;;;;;1.93;100.00;103143.19;4994699;28;20034;-74
2022/03/25 06:02:08;;;;;;;181.18;71.30;;;;;;;1.94;100.00;103140.63;5015462;28;20052;-76
2022/03/25 06:04:34;;;;;;;175.10;68.80;;;;;;;1.96;100.00;103148.53;4996199;28;20029;-75
2022/03/25 06:07:00;;;;;;;172.55;69.40;;;;;;;1.97;100.00;103140.69;5013043;28;20396;-75
2022/03/25 06:09:25;;;;;;;162.82;66.80;;;;;;;2.01;100.00;103141.66;5013037;28;20081;-75
2022/03/25 06:11:51;;;;;;;166.55;68.80;;;;;;;2.05;100.00;103140.06;5011979;28;20398;-75
2022/03/25 06:14:17;;;;;;;171.18;69.22;;;;;;;2.09;100.00;103136.66;4995590;28;20389;-76
2022/03/25 06:16:42;;;;;;;167.65;69.13;;;;;;;2.12;100.00;103145.47;5014258;28;20115;-75
2022/03/25 06:19:08;;;;;;;174.35;69.57;;;;;;;2.15;100.00;103145.56;5009194;28;20037;-75
2022/03/25 06:21:34;;;;;;;159.50;67.35;;;;;;;2.21;100.00;103155.28;4992432;28;20087;-75
2022/03/25 06:24:00;;;;;;;157.43;65.28;;;;;;;2.27;100.00;103159.78;5010070;28;20037;-75
2022/03/25 06:26:26;;;;;;;170.73;69.65;;;;;;;2.35;100.00;103160.00;5010544;28;20080;-75
2022/03/25 06:28:51;;;;;;;152.50;65.95;;;;;;;2.45;100.00;103164.63;5011206;28;20077;-75
2022/03/25 06:31:17;;;;;;;159.50;68.35;;;;;;;2.58;100.00;103160.59;5011290;28;20075;-75
2022/03/25 06:33:42;;;;;;;146.20;65.10;;;;;;;2.66;100.00;103161.66;4993248;28;20661;-75
2022/03/25 06:36:10;;;;;;;144.80;65.95;;;;;;;2.73;100.00;103160.09;5007616;28;20029;-75
2022/03/25 06:38:36;;;;;;;141.43;63.90;;;;;;;2.81;100.00;103163.78;5006077;28;20048;-75
2022/03/25 06:41:02;;;;;;;143.52;65.85;;;;;;;2.88;100.00;103164.81;5009045;28;20389;-74
2022/03/25 06:43:27;;;;;;;152.07;67.88;;;;;;;2.96;100.00;103176.34;5007763;28;20037;-75
2022/03/25 06:45:53;;;;;;;150.43;70.15;;;;;;;3.04;100.00;103176.53;5007939;28;20039;-75
2022/03/25 06:48:19;;;;;;;135.18;62.20;;;;;;;3.11;100.00;103175.81;5008883;28;20040;-75
2022/03/25 06:50:45;;;;;;;127.75;59.10;;;;;;;3.19;100.00;103173.38;5008678;28;20117;-75
2022/03/25 06:53:11;;;;;;;124.78;59.03;;;;;;;3.25;100.00;103173.53;5009167;28;20037;-75
2022/03/25 06:55:37;;;;;;;127.03;60.25;;;;;;;3.31;100.00;103183.25;5008582;28;20262;-75
2022/03/25 06:58:02;;;;;;;125.30;59.40;;;;;;;3.39;100.00;103188.66;5009296;28;20037;-75
2022/03/25 07:00:28;;;;;;;124.43;57.95;;;;;;;3.47;100.00;103196.69;5010191;28;20143;-75
2022/03/25 07:02:55;;;;;;;117.28;60.08;;;;;;;3.56;100.00;103196.00;4980104;28;20040;-75
2022/03/25 07:05:21;;;;;;;117.10;57.63;;;;;;;3.64;100.00;103200.56;5007620;28;20037;-74
2022/03/25 07:07:47;;;;;;;119.50;58.22;;;;;;;3.74;100.00;103203.38;5008673;28;20880;-74
2022/03/25 07:10:14;;;;;;;109.72;56.75;;;;;;;3.82;100.00;103204.44;5008775;28;20477;-75
2022/03/25 07:12:42;;;;;;;117.00;57.65;;;;;;;3.89;100.00;103205.44;5008962;28;20033;-74
2022/03/25 07:15:08;;;;;;;106.57;56.00;;;;;;;3.97;100.00;103209.09;4997047;28;20030;-75
2022/03/25 07:17:35;;;;;;;106.10;54.33;;;;;;;4.05;100.00;103206.63;5009148;28;20025;-75
2022/03/25 07:20:02;;;;;;;101.32;52.83;;;;;;;4.12;100.00;103207.63;5008673;28;20025;-75
2022/03/25 07:22:28;;;;;;;102.25;52.85;;;;;;;4.17;100.00;103205.97;5009559;28;20083;-75
2022/03/25 07:24:53;;;;;;;103.47;53.42;;;;;;;4.24;100.00;103220.09;5008523;28;20033;-75
2022/03/25 07:27:19;;;;;;;97.25;51.67;;;;;;;4.33;100.00;103207.16;5009752;28;20028;-75
2022/03/25 07:29:44;;;;;;;101.72;52.95;;;;;;;4.43;100.00;103214.34;5007964;28;20103;-75
2022/03/25 07:32:10;;;;;;;103.22;54.53;;;;;;;4.52;100.00;103207.50;4991835;28;20069;-75
2022/03/25 07:34:37;;;;;;;97.53;52.92;;;;;;;4.64;100.00;103217.31;4989858;28;20037;-76
2022/03/25 07:37:03;;;;;;;102.22;53.65;;;;;;;4.75;100.00;103213.16;5009182;28;20045;-76
2022/03/25 07:39:30;;;;;;;96.80;52.00;;;;;;;4.88;100.00;103222.09;4993822;28;20053;-76
2022/03/25 07:41:55;;;;;;;90.35;49.20;;;;;;;4.99;100.00;103220.56;4973161;28;20607;-76
2022/03/25 07:44:21;;;;;;;94.65;49.22;;;;;;;5.13;100.00;103227.75;5007896;28;20108;-75
2022/03/25 07:46:47;;;;;;;92.50;51.38;;;;;;;5.25;100.00;103227.97;4992441;28;20042;-75
2022/03/25 07:49:12;;;;;;;89.60;48.75;;;;;;;5.38;100.00;103230.75;5008225;28;20065;-76
2022/03/25 07:51:38;;;;;;;81.28;46.03;;;;;;;5.51;100.00;103230.06;5009059;28;20037;-75
2022/03/25 07:54:03;;;;;;;78.85;44.15;;;;;;;5.63;100.00;103234.63;5007300;28;20143;-75
2022/03/25 07:56:29;;;;;;;76.15;44.38;;;;;;;5.79;100.00;103230.47;5006672;28;20443;-75
2022/03/25 07:58:55;;;;;;;70.50;39.53;;;;;;;5.91;100.00;103236.72;5006127;28;20773;-76
2022/03/25 08:01:20;;;;;;;65.63;38.17;;;;;;;6.03;100.00;103243.91;4992718;28;20044;-76
2022/03/25 08:03:46;;;;;;;65.50;36.83;;;;;;;6.10;100.00;103246.63;5006961;28;20513;-76
2022/03/25 08:06:12;;;;;;;66.18;37.20;;;;;;;6.18;100.00;103246.72;4994817;28;20030;-75
2022/03/25 08:08:38;;;;;;;72.45;38.58;;;;;;;6.28;100.00;103252.09;4995278;28;20040;-75
2022/03/25 08:11:03;;;;;;;65.10;37.97;;;;;;;6.38;100.00;103261.88;5007692;28;20046;-74
2022/03/25 08:13:29;;;;;;;63.00;35.70;;;;;;;6.46;100.00;103264.56;4988860;28;20278;-75
2022/03/25 08:15:55;;;;;;;64.32;35.38;;;;;;;6.55;100.00;103262.03;5007982;28;20327;-75
2022/03/25 08:18:20;;;;;;;62.38;36.53;;;;;;;6.61;100.00;103258.59;5008009;28;20022;-75
2022/03/25 08:20:47;;;;;;;58.38;33.47;;;;;;;6.66;100.00;103255.13;4991664;28;20138;-75
2022/03/25 08:29:07;;;;;;;57.03;32.90;;;;;;;6.87;100.00;103261.44;5005438;28;20045;-75
2022/03/25 08:31:34;;;;;;;55.90;32.45;;;;;;;6.94;100.00;103257.13;5006902;28;20041;-76
2022/03/25 08:34:04;;;;;;;54.58;32.47;;;;;;;7.00;100.00;103261.56;4976593;28;20048;-76
2022/03/25 08:36:30;;;;;;;55.50;32.05;;;;;;;7.09;99.69;103264.28;4989951;28;20622;-76
2022/03/25 08:38:55;;;;;;;51.03;30.77;;;;;;;7.13;97.49;103263.41;5005077;28;20251;-76
2022/03/25 08:41:21;;;;;;;49.47;30.00;;;;;;;7.20;97.29;103259.97;5002917;28;20033;-76
2022/03/25 08:43:49;;;;;;;49.63;30.30;;;;;;;7.25;96.44;103257.34;4989064;28;20056;-76
2022/03/25 08:46:15;;;;;;;44.20;27.65;;;;;;;7.31;95.44;103264.44;4974684;28;20044;-76
2022/03/25 08:48:40;;;;;;;43.35;26.00;;;;;;;7.38;94.84;103260.09;5003029;28;20037;-76
2022/03/25 08:51:06;;;;;;;45.90;24.88;;;;;;;7.40;91.73;103261.84;4988428;28;20413;-76
2022/03/25 08:53:32;;;;;;;42.83;23.35;;;;;;;7.47;90.66;103268.94;5006238;28;20056;-76
2022/03/25 08:55:58;;;;;;;43.75;25.42;;;;;;;7.53;90.33;103265.47;4988454;28;20059;-76
2022/03/25 08:58:24;;;;;;;41.88;24.38;;;;;;;7.56;90.11;103260.22;5006192;28;20030;-76
2022/03/25 09:01:15;;;;;;;42.58;24.20;;;;;;;7.61;88.17;103258.50;4989878;28;20598;-77
2022/03/25 09:03:40;;;;;;;45.75;25.00;;;;;;;7.69;89.84;103263.78;4993363;28;20441;-77
2022/03/25 09:06:06;;;;;;;42.72;25.08;;;;;;;7.74;89.30;103259.41;5005940;28;20512;-75
2022/03/25 09:08:32;;;;;;;39.55;24.45;;;;;;;7.79;88.79;103272.63;4974761;28;20497;-75
2022/03/25 09:10:57;;;;;;;42.63;23.98;;;;;;;7.87;87.33;103263.03;4987415;28;20044;-75
2022/03/25 09:13:23;;;;;;;34.28;20.85;;;;;;;7.97;87.03;103274.50;4987323;28;20384;-75
2022/03/25 09:15:49;;;;;;;37.20;22.73;;;;;;;8.02;85.26;103275.38;5003435;28;20520;-75
2022/03/25 09:18:15;;;;;;;36.22;20.92;;;;;;;8.10;86.10;103271.88;4987178;28;20384;-76
2022/03/25 09:20:40;;;;;;;39.95;22.58;;;;;;;8.14;84.85;103276.31;4987790;28;20060;-75
2022/03/25 09:23:08;;;;;;;36.55;21.70;;;;;;;8.18;83.68;103271.91;4985772;28;20038;-75
2022/03/25 09:25:34;;;;;;;37.40;21.65;;;;;;;8.24;82.68;103274.59;4990467;28;20495;-75
2022/03/25 09:27:59;;;;;;;38.42;22.73;;;;;;;8.31;83.00;103278.09;4986669;28;20033;-75
2022/03/25 09:30:25;;;;;;;39.42;22.17;;;;;;;8.37;83.37;103271.09;4987257;28;20607;-75
2022/03/25 09:32:50;;;;;;;35.55;20.75;;;;;;;8.48;83.63;103272.88;4989357;28;20428;-75
2022/03/25 09:35:16;;;;;;;36.28;21.17;;;;;;;8.52;83.60;103278.22;5003738;28;20037;-76
2022/03/25 09:37:43;;;;;;;39.28;21.38;;;;;;;8.59;82.76;103279.09;4988756;28;20397;-76
2022/03/25 09:40:12;;;;;;;39.33;22.30;;;;;;;8.65;81.03;103273.84;5004717;28;20175;-76
2022/03/25 09:42:38;;;;;;;38.50;22.10;;;;;;;8.70;80.08;103276.47;5004337;28;20030;-76
2022/03/25 09:45:05;;;;;;;39.13;21.70;;;;;;;8.77;80.55;103277.38;4988037;28;20048;-76
2022/03/25 09:47:31;;;;;;;36.22;22.35;;;;;;;8.81;81.04;103279.13;4993929;28;20224;-76
2022/03/25 09:49:58;;;;;;;36.47;21.00;;;;;;;8.86;80.67;103274.75;4987088;28;20032;-76
2022/03/25 09:52:27;;;;;;;36.65;21.20;;;;;;;8.94;78.97;103270.34;4990127;28;20496;-76
2022/03/25 09:54:53;;;;;;;35.35;20.33;;;;;;;8.98;77.98;103273.84;5008710;28;20075;-76
2022/03/25 09:57:19;;;;;;;27.58;17.08;;;;;;;9.01;75.99;103276.50;5009374;28;20120;-76
2022/03/25 09:59:44;;;;;;;33.90;18.83;;;;;;;9.10;76.34;103265.06;5008555;28;20474;-76
2022/03/25 10:02:10;;;;;;;34.38;19.08;;;;;;;9.17;76.17;103271.22;5009967;28;20043;-75
2022/03/25 10:04:42;;;;;;;37.33;17.95;;;;;;;9.23;76.06;103266.81;5009230;28;20540;-76
2022/03/25 10:07:27;;;;;;;33.00;18.13;;;;;;;9.30;74.19;103259.75;5009118;28;20083;-76
2022/03/25 10:10:13;;;;;;;31.88;17.15;;;;;;;9.38;70.63;103259.75;4996436;28;20073;-76
2022/03/25 10:12:40;;;;;;;30.35;17.90;;;;;;;9.47;73.79;103264.13;5009051;28;21461;-75
2022/03/25 10:15:15;;;;;;;33.95;17.67;;;;;;;9.52;72.38;103257.06;4988723;28;20068;-76
2022/03/25 10:17:50;;;;;;;32.15;18.42;;;;;;;9.58;70.28;103264.97;4989704;28;20041;-75
2022/03/25 10:20:17;;;;;;;34.13;18.30;;;;;;;9.58;71.99;103257.03;4991735;28;20037;-76
2022/03/25 10:23:04;;;;;;;34.17;18.88;;;;;;;9.67;69.45;103260.53;4995887;28;20536;-76
2022/03/25 10:25:33;;;;;;;32.38;19.58;;;;;;;9.73;70.53;103258.78;4993214;28;20029;-75
2022/03/25 10:27:59;;;;;;;34.38;19.23;;;;;;;9.78;71.03;103264.03;5008659;28;20454;-75
2022/03/25 10:30:39;;;;;;;31.70;18.55;;;;;;;9.87;69.02;103264.00;5007033;28;20064;-75
2022/03/25 10:33:12;;;;;;;30.98;18.92;;;;;;;9.95;70.27;103255.16;5008913;28;20704;-75
2022/03/25 10:35:54;;;;;;;33.17;19.13;;;;;;;10.03;67.95;103250.72;5007936;28;20033;-75
2022/03/25 10:38:23;;;;;;;35.28;19.17;;;;;;;10.07;68.51;103252.44;5006987;28;20485;-75
2022/03/25 10:40:53;;;;;;;33.40;19.25;;;;;;;10.07;68.60;103249.81;5008328;28;20382;-75
2022/03/25 10:43:19;;;;;;;31.52;19.67;;;;;;;10.13;68.59;103249.78;5008279;28;20033;-75
2022/03/25 10:45:46;;;;;;;31.15;18.70;;;;;;;10.23;68.29;103260.34;4990713;28;20061;-76
2022/03/25 10:48:20;;;;;;;35.55;19.83;;;;;;;10.27;67.76;103262.06;4990762;28;20057;-75
2022/03/25 10:51:07;;;;;;;33.97;19.08;;;;;;;10.34;67.27;103266.44;4988942;28;20120;-75
2022/03/25 10:53:35;;;;;;;37.55;20.75;;;;;;;10.41;67.31;103268.16;4988208;28;20033;-75
2022/03/25 10:56:10;;;;;;;32.97;19.48;;;;;;;10.43;67.32;103268.19;4988181;28;20042;-75
2022/03/25 10:58:36;;;;;;;33.55;19.00;;;;;;;10.50;67.11;103275.19;4991680;28;20037;-75
2022/03/25 11:01:03;;;;;;;33.80;18.95;;;;;;;10.57;66.72;103268.97;4990024;28;20121;-75
2022/03/25 11:03:29;;;;;;;35.10;19.58;;;;;;;10.60;65.55;103270.72;5003562;28;20329;-75
2022/03/25 11:05:54;;;;;;;38.42;21.83;;;;;;;10.61;65.02;103266.31;4987695;28;20034;-75
2022/03/25 11:08:21;;;;;;;35.53;20.92;;;;;;;10.63;65.88;103268.06;5006275;28;20041;-75